createdAt,value
2018-12-23T00:00:33.152Z,35.05
2018-12-23T00:02:26.095Z,35.13
2018-12-23T00:03:26.125Z,35.03
2018-12-23T00:05:19.083Z,35.13
2018-12-23T00:06:19.098Z,35.14
2018-12-23T00:08:12.044Z,35.22
2018-12-23T00:09:12.072Z,35.22
2018-12-23T00:11:05.026Z,34.95
2018-12-23T00:12:05.046Z,35.05
2018-12-23T00:13:57.991Z,34.94
2018-12-23T00:14:58.017Z,35.05
2018-12-23T00:16:50.967Z,34.94
2018-12-23T00:17:50.986Z,35.03
2018-12-23T00:19:43.948Z,35.13
2018-12-23T00:20:43.965Z,35.03
2018-12-23T00:22:36.914Z,35.13
2018-12-23T00:23:36.941Z,35.13
2018-12-23T00:25:29.894Z,35.13
2018-12-23T00:26:29.916Z,35.03
2018-12-23T00:28:22.865Z,35.13
2018-12-23T00:29:22.897Z,35.03
2018-12-23T00:31:15.846Z,35.13
2018-12-23T00:32:15.861Z,35.13
2018-12-23T00:34:08.808Z,35.22
2018-12-23T00:35:08.836Z,35.22
2018-12-23T00:37:01.795Z,35.32
2018-12-23T00:38:01.819Z,35.13
2018-12-23T00:39:54.758Z,35.32
2018-12-23T00:40:54.785Z,35.13
2018-12-23T00:42:47.740Z,35.13
2018-12-23T00:43:47.759Z,35.22
2018-12-23T00:45:40.715Z,35.32
2018-12-23T00:46:40.739Z,34.94
2018-12-23T00:48:33.678Z,35.22
2018-12-23T00:49:33.702Z,35.32
2018-12-23T00:51:26.657Z,35.13
2018-12-23T00:52:26.676Z,34.94
2018-12-23T00:54:19.620Z,35.13
2018-12-23T00:55:19.645Z,35.32
2018-12-23T00:57:12.603Z,35.03
2018-12-23T00:58:12.626Z,35.22
2018-12-23T01:00:05.570Z,35.13
2018-12-23T01:01:05.598Z,35.32
2018-12-23T01:02:58.559Z,35.32
2018-12-23T01:03:58.578Z,35.22
2018-12-23T01:05:51.533Z,35.42
2018-12-23T01:06:51.558Z,35.42
2018-12-23T01:08:44.498Z,35.22
2018-12-23T01:09:44.530Z,35.13
2018-12-23T01:11:37.482Z,35.32
2018-12-23T01:12:37.500Z,35.32
2018-12-23T01:14:30.450Z,35.32
2018-12-23T01:15:30.478Z,35.32
2018-12-23T01:17:23.428Z,35.32
2018-12-23T01:18:23.446Z,35.22
2018-12-23T01:20:16.388Z,35.13
2018-12-23T01:21:16.423Z,34.94
2018-12-23T01:23:09.371Z,35.32
2018-12-23T01:24:09.392Z,35.22
2018-12-23T01:26:02.339Z,35.22
2018-12-23T01:27:02.362Z,35.22
2018-12-23T01:28:55.308Z,35.13
2018-12-23T01:29:55.335Z,34.94
2018-12-23T01:31:48.287Z,34.94
2018-12-23T01:32:48.308Z,35.32
2018-12-23T01:34:41.254Z,35.22
2018-12-23T01:35:41.280Z,35.32
2018-12-23T01:37:34.234Z,35.32
2018-12-23T01:38:34.252Z,35.22
2018-12-23T01:40:27.207Z,35.13
2018-12-23T01:41:27.228Z,35.22
2018-12-23T01:43:20.186Z,35.22
2018-12-23T01:44:20.205Z,35.13
2018-12-23T01:46:13.163Z,35.32
2018-12-23T01:47:13.185Z,35.32
2018-12-23T01:49:06.137Z,35.13
2018-12-23T01:50:06.156Z,35.13
2018-12-23T01:51:59.112Z,35.13
2018-12-23T01:52:59.136Z,35.22
2018-12-23T01:54:52.076Z,35.22
2018-12-23T01:55:52.109Z,35.42
2018-12-23T01:57:45.061Z,35.32
2018-12-23T01:58:45.081Z,35.13
2018-12-23T02:00:38.026Z,35.22
2018-12-23T02:01:38.052Z,35.13
2018-12-23T02:03:31.005Z,35.13
2018-12-23T02:04:31.024Z,34.94
2018-12-23T02:06:23.978Z,35.22
2018-12-23T02:07:23.999Z,35.22
2018-12-23T02:09:16.943Z,35.13
2018-12-23T02:10:16.973Z,35.22
2018-12-23T02:12:09.930Z,35.32
2018-12-23T02:13:09.956Z,35.13
2018-12-23T02:15:02.889Z,35.32
2018-12-23T02:16:02.917Z,35.22
2018-12-23T02:17:55.883Z,35.22
2018-12-23T02:18:55.901Z,35.22
2018-12-23T02:20:48.853Z,35.32
2018-12-23T02:21:48.883Z,35.22
2018-12-23T02:23:41.832Z,35.03
2018-12-23T02:24:41.849Z,35.22
2018-12-23T02:26:34.819Z,35.30
2018-12-23T02:27:34.828Z,35.32
2018-12-23T02:29:27.770Z,35.32
2018-12-23T02:30:27.797Z,35.03
2018-12-23T02:32:20.750Z,35.22
2018-12-23T02:33:20.775Z,35.42
2018-12-23T02:35:14.211Z,35.32
2018-12-23T02:36:14.240Z,35.22
2018-12-23T02:38:07.186Z,35.32
2018-12-23T02:39:07.210Z,35.32
2018-12-23T02:41:00.153Z,35.22
2018-12-23T02:42:00.181Z,35.32
2018-12-23T02:43:53.134Z,35.22
2018-12-23T02:44:53.156Z,34.94
2018-12-23T02:46:46.098Z,35.22
2018-12-23T02:47:46.126Z,35.52
2018-12-23T02:49:39.077Z,35.22
2018-12-23T02:50:39.096Z,35.32
2018-12-23T02:52:32.044Z,35.13
2018-12-23T02:53:32.068Z,35.52
2018-12-23T02:55:25.017Z,35.13
2018-12-23T02:56:25.044Z,35.32
2018-12-23T02:58:18.001Z,35.30
2018-12-23T02:59:18.021Z,35.30
2018-12-23T03:01:10.962Z,35.22
2018-12-23T03:02:10.993Z,35.30
2018-12-23T03:04:04.439Z,35.32
2018-12-23T03:05:04.460Z,35.32
2018-12-23T03:06:57.396Z,35.03
2018-12-23T03:07:57.426Z,35.13
2018-12-23T03:09:50.379Z,35.11
2018-12-23T03:10:50.398Z,35.03
2018-12-23T03:12:43.352Z,35.52
2018-12-23T03:13:43.370Z,35.52
2018-12-23T03:15:36.314Z,35.03
2018-12-23T03:16:36.342Z,35.30
2018-12-23T03:18:29.299Z,35.13
2018-12-23T03:19:29.320Z,35.03
2018-12-23T03:21:22.262Z,35.11
2018-12-23T03:22:22.287Z,35.21
2018-12-23T03:24:15.236Z,35.13
2018-12-23T03:25:15.256Z,35.32
2018-12-23T03:27:08.199Z,35.32
2018-12-23T03:28:08.231Z,35.40
2018-12-23T03:30:01.181Z,35.32
2018-12-23T03:31:01.318Z,35.21
2018-12-23T03:32:54.161Z,35.11
2018-12-23T03:33:54.170Z,35.13
2018-12-23T03:35:47.114Z,35.13
2018-12-23T03:36:47.144Z,35.21
2018-12-23T03:38:40.097Z,34.92
2018-12-23T03:39:40.122Z,34.92
2018-12-23T03:41:33.058Z,35.21
2018-12-23T03:42:33.085Z,35.21
2018-12-23T03:44:26.042Z,35.21
2018-12-23T03:45:26.065Z,35.03
2018-12-23T03:47:19.008Z,35.13
2018-12-23T03:48:19.041Z,35.13
2018-12-23T03:50:11.983Z,35.02
2018-12-23T03:51:12.003Z,35.02
2018-12-23T03:53:04.950Z,35.11
2018-12-23T03:54:04.985Z,35.11
2018-12-23T03:55:57.931Z,35.13
2018-12-23T03:56:57.960Z,35.11
2018-12-23T03:58:50.902Z,35.02
2018-12-23T03:59:50.922Z,35.02
2018-12-23T04:01:43.863Z,35.40
2018-12-23T04:02:43.891Z,35.02
2018-12-23T04:04:37.335Z,35.03
2018-12-23T04:05:37.354Z,35.11
2018-12-23T04:07:30.298Z,35.21
2018-12-23T04:08:30.323Z,35.02
2018-12-23T04:10:23.273Z,34.92
2018-12-23T04:11:23.298Z,34.92
2018-12-23T04:13:16.234Z,35.02
2018-12-23T04:14:16.266Z,35.50
2018-12-23T04:16:09.217Z,35.02
2018-12-23T04:17:09.240Z,35.02
2018-12-23T04:19:02.189Z,34.92
2018-12-23T04:20:02.207Z,35.11
2018-12-23T04:21:55.158Z,35.13
2018-12-23T04:22:55.182Z,35.11
2018-12-23T04:24:48.134Z,35.02
2018-12-23T04:25:48.156Z,35.02
2018-12-23T04:27:41.099Z,35.02
2018-12-23T04:28:41.124Z,34.92
2018-12-23T04:30:34.080Z,34.92
2018-12-23T04:31:34.104Z,35.21
2018-12-23T04:33:27.041Z,35.02
2018-12-23T04:34:27.071Z,35.02
2018-12-23T04:36:20.031Z,35.11
2018-12-23T04:37:20.049Z,35.11
2018-12-23T04:39:13.022Z,35.02
2018-12-23T04:40:13.027Z,35.40
2018-12-23T04:42:05.969Z,34.92
2018-12-23T04:43:05.997Z,35.50
2018-12-23T04:44:58.953Z,35.02
2018-12-23T04:45:58.969Z,35.11
2018-12-23T04:47:51.914Z,35.11
2018-12-23T04:48:51.945Z,34.92
2018-12-23T04:50:44.890Z,34.92
2018-12-23T04:51:44.911Z,35.02
2018-12-23T04:53:37.854Z,35.02
2018-12-23T04:54:37.884Z,34.92
2018-12-23T04:56:30.840Z,35.11
2018-12-23T04:57:30.859Z,35.11
2018-12-23T04:59:23.820Z,35.11
2018-12-23T05:00:23.827Z,35.30
2018-12-23T05:02:16.776Z,34.92
2018-12-23T05:03:16.803Z,35.02
2018-12-23T05:05:09.755Z,35.11
2018-12-23T05:06:09.774Z,35.11
2018-12-23T05:08:02.713Z,35.11
2018-12-23T05:09:02.745Z,35.02
2018-12-23T05:10:55.695Z,35.11
2018-12-23T05:11:55.714Z,35.02
2018-12-23T05:13:48.658Z,35.50
2018-12-23T05:14:48.687Z,35.21
2018-12-23T05:16:41.643Z,35.02
2018-12-23T05:17:41.659Z,34.92
2018-12-23T05:19:35.092Z,35.30
2018-12-23T05:20:35.120Z,34.92
2018-12-23T05:22:28.071Z,35.21
2018-12-23T05:23:28.090Z,35.21
2018-12-23T05:25:21.047Z,35.30
2018-12-23T05:26:21.071Z,35.11
2018-12-23T05:28:14.012Z,35.21
2018-12-23T05:29:14.039Z,35.11
2018-12-23T05:31:06.992Z,35.30
2018-12-23T05:32:07.014Z,35.11
2018-12-23T05:33:59.955Z,35.11
2018-12-23T05:34:59.992Z,35.02
2018-12-23T05:36:52.936Z,34.92
2018-12-23T05:37:52.961Z,35.02
2018-12-23T05:39:45.897Z,35.11
2018-12-23T05:40:45.928Z,35.11
2018-12-23T05:42:38.893Z,35.02
2018-12-23T05:43:38.899Z,35.21
2018-12-23T05:45:31.851Z,34.92
2018-12-23T05:46:31.870Z,35.02
2018-12-23T05:48:24.823Z,35.11
2018-12-23T05:49:24.849Z,35.30
2018-12-23T05:51:17.800Z,35.11
2018-12-23T05:52:17.818Z,35.02
2018-12-23T05:54:10.767Z,35.11
2018-12-23T05:55:10.797Z,35.11
2018-12-23T05:57:03.743Z,35.21
2018-12-23T05:58:03.766Z,35.02
2018-12-23T05:59:56.705Z,34.92
2018-12-23T06:00:56.733Z,35.11
2018-12-23T06:02:49.687Z,34.92
2018-12-23T06:03:49.712Z,34.92
2018-12-23T06:05:42.661Z,34.92
2018-12-23T06:06:42.682Z,35.02
2018-12-23T06:08:35.622Z,34.72
2018-12-23T06:09:35.650Z,34.44
2018-12-23T06:11:28.611Z,34.53
2018-12-23T06:12:28.635Z,34.53
2018-12-23T06:14:21.568Z,34.24
2018-12-23T06:15:21.596Z,34.36
2018-12-23T06:17:14.551Z,34.44
2018-12-23T06:18:14.575Z,34.63
2018-12-23T06:20:07.516Z,34.82
2018-12-23T06:21:07.548Z,34.92
2018-12-23T06:23:00.504Z,34.92
2018-12-23T06:24:00.519Z,34.82
2018-12-23T06:25:53.467Z,34.74
2018-12-23T06:26:53.494Z,34.72
2018-12-23T06:28:46.456Z,34.94
2018-12-23T06:29:46.465Z,34.92
2018-12-23T06:31:39.416Z,34.55
2018-12-23T06:32:39.438Z,34.64
2018-12-23T06:34:32.378Z,34.64
2018-12-23T06:35:32.404Z,34.84
2018-12-23T06:37:25.357Z,34.55
2018-12-23T06:38:25.377Z,34.55
2018-12-23T06:40:18.318Z,34.64
2018-12-23T06:41:18.348Z,34.64
2018-12-23T06:43:11.305Z,34.55
2018-12-23T06:44:11.317Z,34.64
2018-12-23T06:46:04.264Z,34.26
2018-12-23T06:47:04.294Z,34.45
2018-12-23T06:48:58.238Z,34.36
2018-12-23T06:49:58.263Z,34.26
2018-12-23T06:51:51.217Z,34.36
2018-12-23T06:52:51.242Z,34.36
2018-12-23T06:54:44.171Z,34.26
2018-12-23T06:55:44.198Z,34.26
2018-12-23T06:57:37.153Z,34.26
2018-12-23T06:58:37.180Z,34.26
2018-12-23T07:00:30.119Z,34.16
2018-12-23T07:01:30.144Z,34.26
2018-12-23T07:03:23.096Z,34.26
2018-12-23T07:04:23.117Z,34.16
2018-12-23T07:06:16.065Z,34.45
2018-12-23T07:07:18.678Z,34.06
2018-12-23T07:09:09.055Z,33.97
2018-12-23T07:10:09.063Z,34.06
2018-12-23T07:12:02.025Z,34.26
2018-12-23T07:13:02.036Z,34.26
2018-12-23T07:14:54.983Z,33.89
2018-12-23T07:15:55.015Z,33.78
2018-12-23T07:17:47.968Z,33.89
2018-12-23T07:18:47.983Z,33.87
2018-12-23T07:20:40.934Z,33.80
2018-12-23T07:21:40.961Z,33.98
2018-12-23T07:23:33.912Z,33.89
2018-12-23T07:24:33.932Z,33.89
2018-12-23T07:26:26.880Z,33.98
2018-12-23T07:27:26.905Z,33.89
2018-12-23T07:29:19.855Z,33.70
2018-12-23T07:30:19.876Z,33.89
2018-12-23T07:32:12.900Z,33.89
2018-12-23T07:33:12.853Z,33.80
2018-12-23T07:35:06.805Z,33.89
2018-12-23T07:36:06.823Z,33.98
2018-12-23T07:37:59.775Z,34.18
2018-12-23T07:38:59.794Z,34.08
2018-12-23T07:40:52.738Z,34.18
2018-12-23T07:41:52.768Z,34.18
2018-12-23T07:43:45.722Z,34.28
2018-12-23T07:44:45.742Z,34.28
2018-12-23T07:46:38.686Z,33.98
2018-12-23T07:47:38.715Z,34.08
2018-12-23T07:49:31.673Z,34.08
2018-12-23T07:50:31.690Z,34.18
2018-12-23T07:52:24.631Z,34.28
2018-12-23T07:53:24.659Z,34.18
2018-12-23T07:55:17.623Z,34.28
2018-12-23T07:56:17.643Z,34.18
2018-12-23T07:58:10.595Z,34.18
2018-12-23T07:59:10.613Z,34.18
2018-12-23T08:01:03.558Z,34.08
2018-12-23T08:02:03.588Z,34.28
2018-12-23T08:03:56.548Z,34.18
2018-12-23T08:04:56.562Z,34.28
2018-12-23T08:06:49.506Z,34.28
2018-12-23T08:07:49.533Z,34.18
2018-12-23T08:09:42.484Z,34.18
2018-12-23T08:10:42.508Z,33.98
2018-12-23T08:12:35.453Z,34.08
2018-12-23T08:13:35.481Z,34.18
2018-12-23T08:15:28.434Z,34.18
2018-12-23T08:16:28.452Z,34.28
2018-12-23T08:18:21.895Z,34.28
2018-12-23T08:19:21.918Z,33.98
2018-12-23T08:21:15.379Z,33.98
2018-12-23T08:22:15.402Z,34.28
2018-12-23T08:24:08.355Z,34.18
2018-12-23T08:25:08.378Z,34.28
2018-12-23T08:27:01.332Z,34.18
2018-12-23T08:28:01.359Z,34.18
2018-12-23T08:29:54.318Z,33.80
2018-12-23T08:30:54.343Z,34.08
2018-12-23T08:32:47.286Z,33.81
2018-12-23T08:33:47.313Z,34.20
2018-12-23T08:35:40.269Z,34.00
2018-12-23T08:36:40.292Z,34.00
2018-12-23T08:38:33.245Z,34.10
2018-12-23T08:39:33.268Z,34.10
2018-12-23T08:41:26.208Z,34.39
2018-12-23T08:42:26.242Z,34.58
2018-12-23T08:44:19.186Z,34.29
2018-12-23T08:45:19.208Z,34.29
2018-12-23T08:47:12.162Z,34.78
2018-12-23T08:48:12.196Z,34.48
2018-12-23T08:50:05.143Z,34.97
2018-12-23T08:51:05.165Z,35.06
2018-12-23T08:52:58.118Z,35.06
2018-12-23T08:53:58.142Z,35.06
2018-12-23T08:55:51.098Z,35.06
2018-12-23T08:56:51.119Z,35.06
2018-12-23T08:58:44.071Z,35.16
2018-12-23T08:59:44.093Z,35.26
2018-12-23T09:01:37.043Z,35.36
2018-12-23T09:02:37.072Z,35.16
2018-12-23T09:04:30.031Z,35.16
2018-12-23T09:05:30.057Z,35.16
2018-12-23T09:07:23.008Z,34.97
2018-12-23T09:08:23.041Z,34.78
2018-12-23T09:10:15.990Z,34.97
2018-12-23T09:11:16.013Z,35.06
2018-12-23T09:13:08.958Z,35.26
2018-12-23T09:14:08.987Z,35.16
2018-12-23T09:16:01.946Z,35.36
2018-12-23T09:17:01.962Z,35.36
2018-12-23T09:18:54.919Z,34.99
2018-12-23T09:19:54.940Z,35.18
2018-12-23T09:21:47.886Z,35.08
2018-12-23T09:22:47.916Z,34.99
2018-12-23T09:24:40.867Z,34.87
2018-12-23T09:25:40.894Z,34.97
2018-12-23T09:27:33.838Z,34.89
2018-12-23T09:28:33.866Z,35.18
2018-12-23T09:30:26.822Z,34.99
2018-12-23T09:31:26.848Z,35.08
2018-12-23T09:33:19.796Z,35.08
2018-12-23T09:34:19.819Z,34.89
2018-12-23T09:36:12.796Z,34.79
2018-12-23T09:37:12.812Z,34.89
2018-12-23T09:39:05.766Z,34.79
2018-12-23T09:40:05.790Z,34.79
2018-12-23T09:41:58.733Z,34.99
2018-12-23T09:42:58.886Z,35.16
2018-12-23T09:44:51.717Z,35.16
2018-12-23T09:45:51.741Z,35.08
2018-12-23T09:47:45.187Z,35.18
2018-12-23T09:48:45.462Z,35.18
2018-12-23T09:50:38.171Z,34.79
2018-12-23T09:51:38.191Z,34.99
2018-12-23T09:53:31.137Z,35.18
2018-12-23T09:54:31.164Z,34.99
2018-12-23T09:56:24.623Z,35.20
2018-12-23T09:57:24.647Z,35.18
2018-12-23T09:59:18.093Z,35.08
2018-12-23T10:00:18.120Z,34.99
2018-12-23T10:02:11.064Z,34.60
2018-12-23T10:03:11.099Z,34.60
2018-12-23T10:05:04.049Z,35.18
2018-12-23T10:06:04.072Z,35.18
2018-12-23T10:07:57.025Z,34.79
2018-12-23T10:08:57.054Z,34.70
2018-12-23T10:10:50.012Z,34.89
2018-12-23T10:11:50.039Z,35.08
2018-12-23T10:13:42.977Z,35.16
2018-12-23T10:14:43.007Z,35.16
2018-12-23T10:16:35.963Z,34.97
2018-12-23T10:17:35.986Z,34.58
2018-12-23T10:19:29.441Z,34.00
2018-12-23T10:20:29.461Z,34.29
2018-12-23T10:22:22.909Z,34.29
2018-12-23T10:23:22.941Z,34.31
2018-12-23T10:25:15.894Z,34.31
2018-12-23T10:26:15.916Z,34.50
2018-12-23T10:28:08.864Z,34.31
2018-12-23T10:29:08.888Z,34.70
2018-12-23T10:31:01.843Z,34.33
2018-12-23T10:32:01.866Z,34.04
2018-12-23T10:33:54.806Z,34.04
2018-12-23T10:34:54.835Z,34.04
2018-12-23T10:36:47.792Z,34.33
2018-12-23T10:37:47.818Z,34.04
2018-12-23T10:39:40.767Z,34.31
2018-12-23T10:40:40.786Z,34.41
2018-12-23T10:42:33.748Z,34.60
2018-12-23T10:43:33.768Z,34.60
2018-12-23T10:45:26.722Z,34.60
2018-12-23T10:46:26.741Z,34.50
2018-12-23T10:48:19.681Z,34.60
2018-12-23T10:49:19.716Z,34.50
2018-12-23T10:51:12.667Z,34.21
2018-12-23T10:52:12.690Z,34.41
2018-12-23T10:54:05.657Z,34.21
2018-12-23T10:55:05.667Z,33.54
2018-12-23T10:56:58.622Z,33.44
2018-12-23T10:57:58.642Z,33.05
2018-12-23T10:59:51.595Z,33.05
2018-12-23T11:00:51.620Z,32.96
2018-12-23T11:02:44.572Z,33.04
2018-12-23T11:03:44.600Z,33.15
2018-12-23T11:05:37.552Z,32.96
2018-12-23T11:06:37.572Z,32.94
2018-12-23T11:08:30.520Z,32.84
2018-12-23T11:09:30.548Z,33.33
2018-12-23T11:11:23.501Z,33.34
2018-12-23T11:12:23.521Z,33.44
2018-12-23T11:14:16.473Z,34.33
2018-12-23T11:15:16.574Z,34.73
2018-12-23T11:17:09.452Z,33.36
2018-12-23T11:18:09.473Z,33.17
2018-12-23T11:20:02.430Z,32.20
2018-12-23T11:21:02.449Z,32.78
2018-12-23T11:22:55.393Z,32.01
2018-12-23T11:23:55.422Z,31.43
2018-12-23T11:25:48.381Z,30.96
2018-12-23T11:26:48.400Z,31.43
2018-12-23T11:28:41.354Z,31.13
2018-12-23T11:29:41.382Z,30.76
2018-12-23T11:31:36.016Z,30.75
2018-12-23T11:32:34.866Z,30.76
2018-12-23T11:34:27.817Z,30.46
2018-12-23T11:35:27.848Z,30.46
2018-12-23T11:37:20.798Z,30.46
2018-12-23T11:38:20.827Z,30.27
2018-12-23T11:40:13.779Z,30.46
2018-12-23T11:41:13.802Z,30.17
2018-12-23T11:43:06.751Z,30.27
2018-12-23T11:44:06.779Z,29.88
2018-12-23T11:45:59.729Z,29.69
2018-12-23T11:46:59.753Z,29.78
2018-12-23T11:48:52.697Z,29.30
2018-12-23T11:49:52.729Z,29.69
2018-12-23T11:51:46.177Z,30.17
2018-12-23T11:52:46.194Z,29.88
2018-12-23T11:54:40.136Z,29.78
2018-12-23T11:55:40.163Z,29.90
2018-12-23T11:57:33.118Z,29.60
2018-12-23T11:58:33.139Z,29.80
2018-12-23T12:00:26.586Z,29.80
2018-12-23T12:01:26.606Z,30.28
2018-12-23T12:03:19.556Z,30.47
2018-12-23T12:04:19.592Z,30.47
2018-12-23T12:06:13.034Z,30.76
2018-12-23T12:07:13.060Z,30.65
2018-12-23T12:09:07.094Z,30.76
2018-12-23T12:10:06.046Z,30.96
2018-12-23T12:11:59.489Z,30.76
2018-12-23T12:12:59.507Z,30.76
2018-12-23T12:14:52.964Z,30.85
2018-12-23T12:15:53.007Z,30.76
2018-12-23T12:17:46.451Z,30.57
2018-12-23T12:18:46.466Z,30.18
2018-12-23T12:20:39.920Z,30.18
2018-12-23T12:21:39.947Z,29.97
2018-12-23T12:23:32.891Z,29.70
2018-12-23T12:24:32.919Z,29.80
2018-12-23T12:26:26.362Z,30.47
2018-12-23T12:27:26.389Z,30.18
2018-12-23T12:29:19.329Z,30.55
2018-12-23T12:30:19.361Z,30.55
2018-12-23T12:32:12.314Z,30.76
2018-12-23T12:33:12.338Z,30.65
2018-12-23T12:35:05.282Z,30.66
2018-12-23T12:36:05.313Z,30.55
2018-12-23T12:37:58.264Z,31.13
2018-12-23T12:38:58.287Z,31.41
2018-12-23T12:40:52.333Z,31.70
2018-12-23T12:41:51.268Z,32.28
2018-12-23T12:43:44.211Z,32.17
2018-12-23T12:44:44.240Z,32.46
2018-12-23T12:46:37.213Z,32.75
2018-12-23T12:47:37.255Z,32.56
2018-12-23T12:49:30.168Z,32.65
2018-12-23T12:50:30.197Z,32.75
2018-12-23T12:52:23.153Z,32.84
2018-12-23T12:53:23.172Z,32.75
2018-12-23T12:55:16.122Z,32.56
2018-12-23T12:56:16.152Z,32.75
2018-12-23T12:58:09.104Z,32.65
2018-12-23T12:59:09.127Z,32.94
2018-12-23T13:01:02.079Z,33.14
2018-12-23T13:02:02.109Z,33.52
2018-12-23T13:03:55.046Z,33.42
2018-12-23T13:04:55.081Z,33.52
2018-12-23T13:06:48.024Z,33.42
2018-12-23T13:07:48.046Z,32.94
2018-12-23T13:09:40.996Z,33.42
2018-12-23T13:10:41.031Z,32.36
2018-12-23T13:12:33.980Z,32.34
2018-12-23T13:13:34.003Z,32.64
2018-12-23T13:15:26.947Z,32.54
2018-12-23T13:16:26.979Z,33.14
2018-12-23T13:18:19.934Z,32.84
2018-12-23T13:19:19.958Z,32.75
2018-12-23T13:21:12.918Z,32.44
2018-12-23T13:22:12.930Z,32.34
2018-12-23T13:24:05.882Z,32.84
2018-12-23T13:25:05.914Z,32.54
2018-12-23T13:26:59.357Z,32.56
2018-12-23T13:27:59.381Z,32.34
2018-12-23T13:29:52.319Z,32.24
2018-12-23T13:30:52.472Z,32.34
2018-12-23T13:32:45.304Z,32.44
2018-12-23T13:33:45.328Z,31.67
2018-12-23T13:35:38.294Z,31.86
2018-12-23T13:36:38.330Z,32.64
2018-12-23T13:38:31.287Z,32.15
2018-12-23T13:39:31.307Z,31.86
2018-12-23T13:41:24.259Z,31.57
2018-12-23T13:42:24.286Z,32.06
2018-12-23T13:44:17.234Z,31.57
2018-12-23T13:45:17.294Z,31.48
2018-12-23T13:47:10.220Z,31.48
2018-12-23T13:48:10.245Z,31.48
2018-12-23T13:50:03.204Z,30.61
2018-12-23T13:51:03.236Z,31.38
2018-12-23T13:52:56.203Z,31.09
2018-12-23T13:53:56.222Z,31.28
2018-12-23T13:55:49.171Z,30.61
2018-12-23T13:56:49.193Z,30.99
2018-12-23T13:58:42.165Z,30.99
2018-12-23T13:59:42.188Z,31.28
2018-12-23T14:01:35.477Z,31.28
2018-12-23T14:02:35.174Z,31.38
2018-12-23T14:04:28.125Z,31.18
2018-12-23T14:05:28.145Z,31.28
2018-12-23T14:07:21.195Z,31.18
2018-12-23T14:08:21.123Z,31.09
2018-12-23T14:10:14.067Z,31.18
2018-12-23T14:11:14.099Z,31.18
2018-12-23T14:13:07.053Z,31.18
2018-12-23T14:14:07.074Z,31.38
2018-12-23T14:16:00.019Z,32.52
2018-12-23T14:17:00.047Z,32.43
2018-12-23T14:18:53.006Z,31.57
2018-12-23T14:19:53.028Z,31.57
2018-12-23T14:21:45.977Z,31.96
2018-12-23T14:22:45.998Z,31.86
2018-12-23T14:24:38.956Z,32.44
2018-12-23T14:25:38.974Z,32.17
2018-12-23T14:27:31.932Z,32.26
2018-12-23T14:28:31.955Z,32.26
2018-12-23T14:30:24.899Z,32.54
2018-12-23T14:31:24.927Z,32.56
2018-12-23T14:33:17.878Z,32.24
2018-12-23T14:34:17.900Z,32.73
2018-12-23T14:36:10.847Z,32.15
2018-12-23T14:37:10.876Z,32.26
2018-12-23T14:39:03.831Z,32.36
2018-12-23T14:40:03.853Z,32.36
2018-12-23T14:41:56.821Z,32.36
2018-12-23T14:42:56.844Z,32.36
2018-12-23T14:44:49.799Z,32.65
2018-12-23T14:45:49.815Z,32.56
2018-12-23T14:47:42.767Z,32.73
2018-12-23T14:48:42.794Z,32.75
2018-12-23T14:50:35.737Z,33.02
2018-12-23T14:51:35.765Z,32.64
2018-12-23T14:53:28.722Z,32.75
2018-12-23T14:54:28.757Z,32.65
2018-12-23T14:56:21.682Z,32.56
2018-12-23T14:57:21.717Z,32.75
2018-12-23T14:59:15.168Z,32.94
2018-12-23T15:00:15.190Z,32.75
2018-12-23T15:02:08.136Z,32.94
2018-12-23T15:03:08.166Z,33.04
2018-12-23T15:05:01.119Z,33.14
2018-12-23T15:06:01.143Z,32.94
2018-12-23T15:07:54.093Z,33.04
2018-12-23T15:08:54.118Z,33.23
2018-12-23T15:10:47.071Z,33.42
2018-12-23T15:11:47.095Z,33.23
2018-12-23T15:13:40.098Z,33.33
2018-12-23T15:14:40.124Z,33.33
2018-12-23T15:16:33.065Z,33.62
2018-12-23T15:17:33.093Z,33.62
2018-12-23T15:19:26.046Z,34.00
2018-12-23T15:20:26.072Z,34.10
2018-12-23T15:22:19.022Z,34.20
2018-12-23T15:23:19.053Z,34.10
2018-12-23T15:25:12.007Z,34.20
2018-12-23T15:26:12.023Z,34.29
2018-12-23T15:28:04.993Z,34.29
2018-12-23T15:29:05.003Z,34.29
2018-12-23T15:30:57.959Z,33.50
2018-12-23T15:31:57.988Z,33.80
2018-12-23T15:33:50.948Z,34.10
2018-12-23T15:34:50.962Z,34.00
2018-12-23T15:36:43.918Z,33.91
2018-12-23T15:37:43.944Z,34.00
2018-12-23T15:39:42.538Z,34.29
2018-12-23T15:40:36.920Z,34.29
2018-12-23T15:42:29.866Z,34.39
2018-12-23T15:43:29.895Z,34.20
2018-12-23T15:45:22.852Z,34.20
2018-12-23T15:46:22.875Z,34.68
2018-12-23T15:48:15.827Z,34.29
2018-12-23T15:49:15.846Z,34.20
2018-12-23T15:51:08.794Z,34.29
2018-12-23T15:52:08.823Z,34.20
2018-12-23T15:54:01.784Z,34.39
2018-12-23T15:55:01.803Z,34.29
2018-12-23T15:56:54.755Z,34.29
2018-12-23T15:57:54.783Z,34.29
2018-12-23T15:59:47.736Z,34.29
2018-12-23T16:00:47.760Z,34.39
2018-12-23T16:02:40.707Z,34.39
2018-12-23T16:03:40.737Z,34.39
2018-12-23T16:05:33.692Z,34.79
2018-12-23T16:06:33.714Z,34.50
2018-12-23T16:08:26.676Z,34.60
2018-12-23T16:09:26.697Z,34.39
2018-12-23T16:11:19.642Z,34.31
2018-12-23T16:12:19.668Z,34.70
2018-12-23T16:14:12.627Z,34.31
2018-12-23T16:15:12.653Z,34.31
2018-12-23T16:17:05.595Z,34.12
2018-12-23T16:18:05.628Z,34.41
2018-12-23T16:19:58.585Z,34.41
2018-12-23T16:20:58.604Z,34.50
2018-12-23T16:22:51.550Z,34.60
2018-12-23T16:23:51.578Z,34.48
2018-12-23T16:25:44.536Z,34.41
2018-12-23T16:26:44.553Z,34.41
2018-12-23T16:28:37.511Z,34.39
2018-12-23T16:29:37.532Z,34.68
2018-12-23T16:31:30.474Z,34.48
2018-12-23T16:32:30.509Z,34.68
2018-12-23T16:34:23.461Z,34.68
2018-12-23T16:35:23.480Z,34.58
2018-12-23T16:37:16.430Z,34.97
2018-12-23T16:38:16.460Z,34.68
2018-12-23T16:40:09.414Z,34.78
2018-12-23T16:41:09.438Z,34.87
2018-12-23T16:43:02.383Z,34.58
2018-12-23T16:44:02.417Z,34.58
2018-12-23T16:45:55.368Z,34.68
2018-12-23T16:46:55.386Z,34.68
2018-12-23T16:48:48.386Z,34.29
2018-12-23T16:49:48.375Z,34.58
2018-12-23T16:51:41.325Z,34.31
2018-12-23T16:52:41.350Z,34.48
2018-12-23T16:54:34.305Z,34.78
2018-12-23T16:55:34.638Z,34.97
2018-12-23T16:57:27.269Z,34.97
2018-12-23T16:58:27.299Z,35.16
2018-12-23T17:00:20.256Z,34.78
2018-12-23T17:01:20.294Z,34.97
2018-12-23T17:03:13.219Z,35.16
2018-12-23T17:04:13.248Z,34.97
2018-12-23T17:06:06.201Z,35.16
2018-12-23T17:07:06.225Z,34.78
2018-12-23T17:08:59.181Z,34.97
2018-12-23T17:09:59.204Z,35.16
2018-12-23T17:11:52.153Z,35.06
2018-12-23T17:12:52.177Z,34.87
2018-12-23T17:14:45.137Z,34.58
2018-12-23T17:15:45.155Z,34.87
2018-12-23T17:17:38.107Z,35.06
2018-12-23T17:18:38.136Z,35.06
2018-12-23T17:20:31.090Z,34.97
2018-12-23T17:21:31.113Z,34.97
2018-12-23T17:23:24.053Z,34.97
2018-12-23T17:24:24.084Z,34.87
2018-12-23T17:26:17.035Z,34.58
2018-12-23T17:27:17.058Z,34.87
2018-12-23T17:29:10.014Z,34.68
2018-12-23T17:30:10.038Z,35.06
2018-12-23T17:32:02.991Z,34.78
2018-12-23T17:33:03.008Z,34.68
2018-12-23T17:34:55.960Z,34.97
2018-12-23T17:35:55.983Z,34.78
2018-12-23T17:37:48.932Z,34.87
2018-12-23T17:38:48.965Z,35.06
2018-12-23T17:40:41.918Z,35.16
2018-12-23T17:41:41.940Z,35.26
2018-12-23T17:43:34.887Z,34.78
2018-12-23T17:44:34.917Z,34.97
2018-12-23T17:46:27.875Z,34.78
2018-12-23T17:47:27.890Z,34.68
2018-12-23T17:49:20.846Z,34.87
2018-12-23T17:50:20.867Z,34.68
2018-12-23T17:52:13.817Z,34.79
2018-12-23T17:53:13.924Z,34.89
2018-12-23T17:55:06.796Z,34.60
2018-12-23T17:56:06.822Z,34.89
2018-12-23T17:57:59.837Z,35.16
2018-12-23T17:58:59.789Z,35.26
2018-12-23T18:00:52.750Z,35.26
2018-12-23T18:01:52.771Z,35.36
2018-12-23T18:03:45.719Z,35.28
2018-12-23T18:04:45.753Z,35.18
2018-12-23T18:06:38.696Z,35.57
2018-12-23T18:07:38.720Z,35.18
2018-12-23T18:09:31.669Z,35.18
2018-12-23T18:10:31.699Z,35.57
2018-12-23T18:12:24.655Z,35.95
2018-12-23T18:13:24.667Z,35.95
2018-12-23T18:15:17.638Z,36.92
2018-12-23T18:16:17.666Z,37.21
2018-12-23T18:18:10.611Z,37.77
2018-12-23T18:19:10.639Z,37.98
2018-12-23T18:21:03.594Z,37.77
2018-12-23T18:22:03.616Z,37.87
2018-12-23T18:23:56.563Z,37.67
2018-12-23T18:24:56.594Z,37.88
2018-12-23T18:26:49.548Z,37.87
2018-12-23T18:27:49.568Z,38.06
2018-12-23T18:29:42.542Z,37.58
2018-12-23T18:30:42.569Z,37.38
2018-12-23T18:32:35.521Z,37.96
2018-12-23T18:33:35.545Z,37.96